sensor_id;sensor_type;location;lat;lon;timestamp;pressure;altitude;pressure_sealevel;temperature
68012;BMP180;54794;48.348;7.878;2023-09-12T00:01:59;98653.00;;;22.60
68012;BMP180;54794;48.348;7.878;2023-09-12T00:04:35;98645.00;;;22.70
68012;BMP180;54794;48.348;7.878;2023-09-12T00:07:24;98646.00;;;22.70
68012;BMP180;54794;48.348;7.878;2023-09-12T00:10:17;98640.00;;;22.30
68012;BMP180;54794;48.348;7.878;2023-09-12T00:12:59;98640.00;;;22.40
68012;BMP180;54794;48.348;7.878;2023-09-12T00:15:49;98634.00;;;22.70
68012;BMP180;54794;48.348;7.878;2023-09-12T00:18:30;98641.00;;;22.20
68012;BMP180;54794;48.348;7.878;2023-09-12T00:21:44;98629.00;;;22.60
68012;BMP180;54794;48.348;7.878;2023-09-12T00:24:39;98624.00;;;22.30
68012;BMP180;54794;48.348;7.878;2023-09-12T00:27:39;98608.00;;;22.50
68012;BMP180;54794;48.348;7.878;2023-09-12T00:30:17;98613.00;;;22.60
68012;BMP180;54794;48.348;7.878;2023-09-12T00:32:51;98614.00;;;22.10
68012;BMP180;54794;48.348;7.878;2023-09-12T00:35:29;98612.00;;;21.70
68012;BMP180;54794;48.348;7.878;2023-09-12T00:38:43;98622.00;;;21.90
68012;BMP180;54794;48.348;7.878;2023-09-12T00:41:23;98629.00;;;21.90
68012;BMP180;54794;48.348;7.878;2023-09-12T00:44:04;98617.00;;;21.80
68012;BMP180;54794;48.348;7.878;2023-09-12T00:46:57;98626.00;;;21.80
68012;BMP180;54794;48.348;7.878;2023-09-12T00:49:33;98617.00;;;21.50
68012;BMP180;54794;48.348;7.878;2023-09-12T00:52:19;98618.00;;;21.70
68012;BMP180;54794;48.348;7.878;2023-09-12T00:55:06;98626.00;;;21.40
68012;BMP180;54794;48.348;7.878;2023-09-12T00:57:47;98627.00;;;21.40
68012;BMP180;54794;48.348;7.878;2023-09-12T01:00:40;98636.00;;;21.70
68012;BMP180;54794;48.348;7.878;2023-09-12T01:03:38;98630.00;;;21.90
68012;BMP180;54794;48.348;7.878;2023-09-12T01:06:42;98626.00;;;22.10
68012;BMP180;54794;48.348;7.878;2023-09-12T01:09:32;98629.00;;;21.80
68012;BMP180;54794;48.348;7.878;2023-09-12T01:12:32;98629.00;;;21.60
68012;BMP180;54794;48.348;7.878;2023-09-12T01:15:18;98621.00;;;21.50
68012;BMP180;54794;48.348;7.878;2023-09-12T01:17:59;98629.00;;;21.70
68012;BMP180;54794;48.348;7.878;2023-09-12T01:20:36;98628.00;;;21.40
68012;BMP180;54794;48.348;7.878;2023-09-12T01:23:54;98623.00;;;21.90
68012;BMP180;54794;48.348;7.878;2023-09-12T01:27:34;98620.00;;;21.60
68012;BMP180;54794;48.348;7.878;2023-09-12T01:30:20;98614.00;;;21.70
68012;BMP180;54794;48.348;7.878;2023-09-12T01:33:09;98611.00;;;21.40
68012;BMP180;54794;48.348;7.878;2023-09-12T01:35:49;98615.00;;;21.40
68012;BMP180;54794;48.348;7.878;2023-09-12T01:38:48;98608.00;;;21.60
68012;BMP180;54794;48.348;7.878;2023-09-12T01:41:48;98607.00;;;21.80
68012;BMP180;54794;48.348;7.878;2023-09-12T01:44:37;98603.00;;;21.80
68012;BMP180;54794;48.348;7.878;2023-09-12T01:47:37;98602.00;;;21.50
68012;BMP180;54794;48.348;7.878;2023-09-12T01:50:27;98601.00;;;21.60
68012;BMP180;54794;48.348;7.878;2023-09-12T01:53:39;98608.00;;;21.40
68012;BMP180;54794;48.348;7.878;2023-09-12T01:56:25;98607.00;;;21.40
68012;BMP180;54794;48.348;7.878;2023-09-12T01:59:05;98613.00;;;21.70
68012;BMP180;54794;48.348;7.878;2023-09-12T02:01:48;98619.00;;;21.50
68012;BMP180;54794;48.348;7.878;2023-09-12T02:05:15;98628.00;;;21.10
68012;BMP180;54794;48.348;7.878;2023-09-12T02:08:29;98623.00;;;21.40
68012;BMP180;54794;48.348;7.878;2023-09-12T02:11:15;98616.00;;;21.50
68012;BMP180;54794;48.348;7.878;2023-09-12T02:14:15;98622.00;;;21.40
68012;BMP180;54794;48.348;7.878;2023-09-12T02:17:17;98611.00;;;21.70
68012;BMP180;54794;48.348;7.878;2023-09-12T02:20:06;98613.00;;;21.70
68012;BMP180;54794;48.348;7.878;2023-09-12T02:22:44;98618.00;;;21.80
68012;BMP180;54794;48.348;7.878;2023-09-12T02:26:16;98636.00;;;21.70
68012;BMP180;54794;48.348;7.878;2023-09-12T02:29:13;98625.00;;;21.80
68012;BMP180;54794;48.348;7.878;2023-09-12T02:32:00;98623.00;;;21.50
68012;BMP180;54794;48.348;7.878;2023-09-12T02:35:01;98615.00;;;21.70
68012;BMP180;54794;48.348;7.878;2023-09-12T02:38:14;98624.00;;;21.60
68012;BMP180;54794;48.348;7.878;2023-09-12T02:41:18;98624.00;;;21.80
68012;BMP180;54794;48.348;7.878;2023-09-12T02:44:57;98627.00;;;21.70
68012;BMP180;54794;48.348;7.878;2023-09-12T02:47:58;98623.00;;;21.70
68012;BMP180;54794;48.348;7.878;2023-09-12T02:51:11;98632.00;;;21.70
68012;BMP180;54794;48.348;7.878;2023-09-12T02:53:56;98628.00;;;21.80
68012;BMP180;54794;48.348;7.878;2023-09-12T02:56:48;98636.00;;;21.60
68012;BMP180;54794;48.348;7.878;2023-09-12T03:00:26;98637.00;;;21.80
68012;BMP180;54794;48.348;7.878;2023-09-12T03:03:13;98635.00;;;21.50
68012;BMP180;54794;48.348;7.878;2023-09-12T03:06:28;98629.00;;;21.80
68012;BMP180;54794;48.348;7.878;2023-09-12T03:09:19;98619.00;;;21.60
68012;BMP180;54794;48.348;7.878;2023-09-12T03:16:11;98618.00;;;21.30
68012;BMP180;54794;48.348;7.878;2023-09-12T03:19:17;98611.00;;;21.60
68012;BMP180;54794;48.348;7.878;2023-09-12T03:22:54;98607.00;;;21.20
68012;BMP180;54794;48.348;7.878;2023-09-12T03:26:11;98609.00;;;21.00
68012;BMP180;54794;48.348;7.878;2023-09-12T03:29:34;98611.00;;;21.40
68012;BMP180;54794;48.348;7.878;2023-09-12T03:33:04;98607.00;;;21.20
68012;BMP180;54794;48.348;7.878;2023-09-12T03:36:20;98599.00;;;21.40
68012;BMP180;54794;48.348;7.878;2023-09-12T03:40:00;98600.00;;;21.20
68012;BMP180;54794;48.348;7.878;2023-09-12T03:43:04;98595.00;;;21.10
68012;BMP180;54794;48.348;7.878;2023-09-12T03:49:27;98576.00;;;21.20
68012;BMP180;54794;48.348;7.878;2023-09-12T03:52:58;98587.00;;;21.30
68012;BMP180;54794;48.348;7.878;2023-09-12T03:59:51;98579.00;;;21.20
68012;BMP180;54794;48.348;7.878;2023-09-12T04:06:39;98593.00;;;21.60
68012;BMP180;54794;48.348;7.878;2023-09-12T04:09:19;98580.00;;;21.40
68012;BMP180;54794;48.348;7.878;2023-09-12T04:15:50;98592.00;;;20.90
68012;BMP180;54794;48.348;7.878;2023-09-12T04:18:48;98609.00;;;20.80
68012;BMP180;54794;48.348;7.878;2023-09-12T04:22:06;98597.00;;;21.00
68012;BMP180;54794;48.348;7.878;2023-09-12T04:24:57;98603.00;;;21.00
68012;BMP180;54794;48.348;7.878;2023-09-12T04:27:50;98590.00;;;21.10
68012;BMP180;54794;48.348;7.878;2023-09-12T04:30:48;98593.00;;;20.70
68012;BMP180;54794;48.348;7.878;2023-09-12T04:33:55;98604.00;;;20.60
68012;BMP180;54794;48.348;7.878;2023-09-12T04:36:48;98617.00;;;20.80
68012;BMP180;54794;48.348;7.878;2023-09-12T04:39:37;98617.00;;;20.80
68012;BMP180;54794;48.348;7.878;2023-09-12T04:42:18;98614.00;;;20.70
68012;BMP180;54794;48.348;7.878;2023-09-12T04:48:45;98617.00;;;20.60
68012;BMP180;54794;48.348;7.878;2023-09-12T04:51:44;98619.00;;;20.90
68012;BMP180;54794;48.348;7.878;2023-09-12T04:54:51;98617.00;;;21.00
68012;BMP180;54794;48.348;7.878;2023-09-12T04:57:50;98615.00;;;20.70
68012;BMP180;54794;48.348;7.878;2023-09-12T05:00:35;98620.00;;;20.70
68012;BMP180;54794;48.348;7.878;2023-09-12T05:03:28;98609.00;;;21.00
68012;BMP180;54794;48.348;7.878;2023-09-12T05:06:21;98609.00;;;20.60
68012;BMP180;54794;48.348;7.878;2023-09-12T05:09:45;98618.00;;;20.80
68012;BMP180;54794;48.348;7.878;2023-09-12T05:12:54;98613.00;;;20.70
68012;BMP180;54794;48.348;7.878;2023-09-12T05:15:53;98605.00;;;20.90
68012;BMP180;54794;48.348;7.878;2023-09-12T05:19:23;98609.00;;;20.60
68012;BMP180;54794;48.348;7.878;2023-09-12T05:22:37;98616.00;;;20.60
68012;BMP180;54794;48.348;7.878;2023-09-12T05:29:45;98617.00;;;20.70
68012;BMP180;54794;48.348;7.878;2023-09-12T05:33:29;98613.00;;;20.80
68012;BMP180;54794;48.348;7.878;2023-09-12T05:36:34;98631.00;;;20.80
68012;BMP180;54794;48.348;7.878;2023-09-12T05:39:39;98626.00;;;20.70
68012;BMP180;54794;48.348;7.878;2023-09-12T05:43:00;98625.00;;;21.00
68012;BMP180;54794;48.348;7.878;2023-09-12T05:46:45;98625.00;;;20.90
68012;BMP180;54794;48.348;7.878;2023-09-12T05:49:55;98648.00;;;20.80
68012;BMP180;54794;48.348;7.878;2023-09-12T05:52:22;98644.00;;;20.90
68012;BMP180;54794;48.348;7.878;2023-09-12T05:54:49;98657.00;;;21.00
68012;BMP180;54794;48.348;7.878;2023-09-12T05:57:18;98665.00;;;20.90
68012;BMP180;54794;48.348;7.878;2023-09-12T05:59:58;98670.00;;;21.20
68012;BMP180;54794;48.348;7.878;2023-09-12T06:03:41;98670.00;;;21.30
68012;BMP180;54794;48.348;7.878;2023-09-12T06:07:02;98669.00;;;21.50
68012;BMP180;54794;48.348;7.878;2023-09-12T06:10:01;98655.00;;;21.50
68012;BMP180;54794;48.348;7.878;2023-09-12T06:13:02;98660.00;;;21.50
68012;BMP180;54794;48.348;7.878;2023-09-12T06:20:27;98656.00;;;21.70
68012;BMP180;54794;48.348;7.878;2023-09-12T06:28:03;98651.00;;;21.60
68012;BMP180;54794;48.348;7.878;2023-09-12T06:31:20;98654.00;;;21.70
68012;BMP180;54794;48.348;7.878;2023-09-12T06:34:42;98642.00;;;22.00
68012;BMP180;54794;48.348;7.878;2023-09-12T06:41:57;98644.00;;;22.20
68012;BMP180;54794;48.348;7.878;2023-09-12T06:45:34;98641.00;;;22.30
68012;BMP180;54794;48.348;7.878;2023-09-12T06:48:48;98641.00;;;22.50
68012;BMP180;54794;48.348;7.878;2023-09-12T06:52:10;98645.00;;;22.60
68012;BMP180;54794;48.348;7.878;2023-09-12T06:58:54;98655.00;;;22.70
68012;BMP180;54794;48.348;7.878;2023-09-12T07:02:57;98654.00;;;22.90
68012;BMP180;54794;48.348;7.878;2023-09-12T07:05:40;98652.00;;;23.10
68012;BMP180;54794;48.348;7.878;2023-09-12T07:12:30;98656.00;;;23.40
68012;BMP180;54794;48.348;7.878;2023-09-12T07:15:56;98662.00;;;23.60
68012;BMP180;54794;48.348;7.878;2023-09-12T07:19:43;98656.00;;;23.70
68012;BMP180;54794;48.348;7.878;2023-09-12T07:23:00;98657.00;;;23.80
68012;BMP180;54794;48.348;7.878;2023-09-12T07:37:27;98667.00;;;24.70
68012;BMP180;54794;48.348;7.878;2023-09-12T07:45:00;98670.00;;;24.90
68012;BMP180;54794;48.348;7.878;2023-09-12T07:47:55;98668.00;;;25.10
68012;BMP180;54794;48.348;7.878;2023-09-12T08:07:55;98688.00;;;24.50
68012;BMP180;54794;48.348;7.878;2023-09-12T08:14:35;98681.00;;;24.40
68012;BMP180;54794;48.348;7.878;2023-09-12T08:30:11;98714.00;;;24.70
68012;BMP180;54794;48.348;7.878;2023-09-12T08:33:32;98720.00;;;24.60
68012;BMP180;54794;48.348;7.878;2023-09-12T08:41:13;98708.00;;;25.30
68012;BMP180;54794;48.348;7.878;2023-09-12T08:52:18;98712.00;;;26.20
68012;BMP180;54794;48.348;7.878;2023-09-12T08:56:24;98714.00;;;26.70
68012;BMP180;54794;48.348;7.878;2023-09-12T09:03:29;98712.00;;;27.10
68012;BMP180;54794;48.348;7.878;2023-09-12T09:11:45;98709.00;;;27.60
68012;BMP180;54794;48.348;7.878;2023-09-12T09:36:50;98682.00;;;28.10
68012;BMP180;54794;48.348;7.878;2023-09-12T09:57:07;98662.00;;;28.70
68012;BMP180;54794;48.348;7.878;2023-09-12T10:08:34;98645.00;;;29.40
68012;BMP180;54794;48.348;7.878;2023-09-12T10:15:46;98643.00;;;29.50
68012;BMP180;54794;48.348;7.878;2023-09-12T10:23:06;98629.00;;;29.20
68012;BMP180;54794;48.348;7.878;2023-09-12T10:31:05;98625.00;;;29.50
68012;BMP180;54794;48.348;7.878;2023-09-12T10:34:46;98623.00;;;29.30
68012;BMP180;54794;48.348;7.878;2023-09-12T10:42:18;98605.00;;;29.40
68012;BMP180;54794;48.348;7.878;2023-09-12T10:45:50;98603.00;;;29.60
68012;BMP180;54794;48.348;7.878;2023-09-12T11:09:30;98606.00;;;30.50
68012;BMP180;54794;48.348;7.878;2023-09-12T11:13:04;98597.00;;;30.70
68012;BMP180;54794;48.348;7.878;2023-09-12T11:16:20;98595.00;;;30.50
68012;BMP180;54794;48.348;7.878;2023-09-12T11:28:37;98598.00;;;31.10
68012;BMP180;54794;48.348;7.878;2023-09-12T11:36:27;98598.00;;;30.90
68012;BMP180;54794;48.348;7.878;2023-09-12T11:39:49;98613.00;;;31.20
68012;BMP180;54794;48.348;7.878;2023-09-12T11:43:38;98609.00;;;31.10
68012;BMP180;54794;48.348;7.878;2023-09-12T11:46:55;98610.00;;;31.10
68012;BMP180;54794;48.348;7.878;2023-09-12T11:50:27;98608.00;;;31.50
68012;BMP180;54794;48.348;7.878;2023-09-12T12:10:10;98616.00;;;33.60
68012;BMP180;54794;48.348;7.878;2023-09-12T12:13:29;98604.00;;;33.60
68012;BMP180;54794;48.348;7.878;2023-09-12T12:20:10;98604.00;;;34.50
68012;BMP180;54794;48.348;7.878;2023-09-12T12:23:08;98598.00;;;35.00
68012;BMP180;54794;48.348;7.878;2023-09-12T12:26:24;98588.00;;;33.90
68012;BMP180;54794;48.348;7.878;2023-09-12T12:29:26;98591.00;;;32.70
68012;BMP180;54794;48.348;7.878;2023-09-12T12:33:10;98592.00;;;33.10
68012;BMP180;54794;48.348;7.878;2023-09-12T12:44:39;98584.00;;;34.20
68012;BMP180;54794;48.348;7.878;2023-09-12T12:47:37;98588.00;;;34.70
68012;BMP180;54794;48.348;7.878;2023-09-12T12:51:35;98599.00;;;35.40
68012;BMP180;54794;48.348;7.878;2023-09-12T12:54:31;98589.00;;;35.40
68012;BMP180;54794;48.348;7.878;2023-09-12T13:01:46;98585.00;;;35.70
68012;BMP180;54794;48.348;7.878;2023-09-12T13:05:32;98574.00;;;35.60
68012;BMP180;54794;48.348;7.878;2023-09-12T13:08:49;98560.00;;;34.20
68012;BMP180;54794;48.348;7.878;2023-09-12T13:12:10;98551.00;;;34.40
68012;BMP180;54794;48.348;7.878;2023-09-12T13:15:18;98558.00;;;35.00
68012;BMP180;54794;48.348;7.878;2023-09-12T13:18:44;98545.00;;;35.70
68012;BMP180;54794;48.348;7.878;2023-09-12T13:21:46;98546.00;;;35.70
68012;BMP180;54794;48.348;7.878;2023-09-12T13:31:47;98511.00;;;34.80
68012;BMP180;54794;48.348;7.878;2023-09-12T13:38:24;98513.00;;;36.10
68012;BMP180;54794;48.348;7.878;2023-09-12T13:45:04;98502.00;;;36.20
68012;BMP180;54794;48.348;7.878;2023-09-12T13:55:51;98501.00;;;35.30
68012;BMP180;54794;48.348;7.878;2023-09-12T14:03:24;98501.00;;;35.90
68012;BMP180;54794;48.348;7.878;2023-09-12T14:15:03;98501.00;;;36.10
68012;BMP180;54794;48.348;7.878;2023-09-12T14:18:21;98498.00;;;36.40
68012;BMP180;54794;48.348;7.878;2023-09-12T14:21:47;98494.00;;;36.50
68012;BMP180;54794;48.348;7.878;2023-09-12T14:32:48;98493.00;;;36.20
68012;BMP180;54794;48.348;7.878;2023-09-12T14:43:43;98480.00;;;36.10
68012;BMP180;54794;48.348;7.878;2023-09-12T14:46:57;98478.00;;;35.90
68012;BMP180;54794;48.348;7.878;2023-09-12T14:51:01;98472.00;;;35.90
68012;BMP180;54794;48.348;7.878;2023-09-12T14:55:01;98473.00;;;36.20
68012;BMP180;54794;48.348;7.878;2023-09-12T14:58:57;98457.00;;;35.60
68012;BMP180;54794;48.348;7.878;2023-09-12T15:02:32;98459.00;;;35.90
68012;BMP180;54794;48.348;7.878;2023-09-12T15:12:54;98462.00;;;35.00
68012;BMP180;54794;48.348;7.878;2023-09-12T15:20:39;98460.00;;;34.90
68012;BMP180;54794;48.348;7.878;2023-09-12T15:24:21;98471.00;;;34.40
68012;BMP180;54794;48.348;7.878;2023-09-12T15:31:18;98476.00;;;34.00
68012;BMP180;54794;48.348;7.878;2023-09-12T15:34:32;98473.00;;;33.80
68012;BMP180;54794;48.348;7.878;2023-09-12T16:06:18;98502.00;;;33.30
68012;BMP180;54794;48.348;7.878;2023-09-12T16:09:35;98511.00;;;33.80
68012;BMP180;54794;48.348;7.878;2023-09-12T16:16:59;98525.00;;;32.90
68012;BMP180;54794;48.348;7.878;2023-09-12T16:32:17;98530.00;;;32.90
68012;BMP180;54794;48.348;7.878;2023-09-12T16:35:42;98530.00;;;32.50
68012;BMP180;54794;48.348;7.878;2023-09-12T16:39:28;98534.00;;;32.40
68012;BMP180;54794;48.348;7.878;2023-09-12T16:46:44;98537.00;;;31.90
68012;BMP180;54794;48.348;7.878;2023-09-12T16:50:18;98551.00;;;31.60
68012;BMP180;54794;48.348;7.878;2023-09-12T16:53:46;98547.00;;;31.20
68012;BMP180;54794;48.348;7.878;2023-09-12T16:56:40;98544.00;;;31.10
68012;BMP180;54794;48.348;7.878;2023-09-12T17:00:06;98540.00;;;31.10
68012;BMP180;54794;48.348;7.878;2023-09-12T17:03:26;98538.00;;;31.10
68012;BMP180;54794;48.348;7.878;2023-09-12T17:06:23;98538.00;;;31.00
68012;BMP180;54794;48.348;7.878;2023-09-12T17:10:11;98527.00;;;30.60
68012;BMP180;54794;48.348;7.878;2023-09-12T17:13:39;98528.00;;;30.30
68012;BMP180;54794;48.348;7.878;2023-09-12T17:17:10;98531.00;;;29.70
68012;BMP180;54794;48.348;7.878;2023-09-12T17:24:15;98545.00;;;30.00
68012;BMP180;54794;48.348;7.878;2023-09-12T17:31:22;98550.00;;;29.70
68012;BMP180;54794;48.348;7.878;2023-09-12T17:41:38;98548.00;;;29.30
68012;BMP180;54794;48.348;7.878;2023-09-12T17:45:22;98549.00;;;29.10
68012;BMP180;54794;48.348;7.878;2023-09-12T17:49:14;98539.00;;;28.80
68012;BMP180;54794;48.348;7.878;2023-09-12T18:00:34;98553.00;;;28.80
68012;BMP180;54794;48.348;7.878;2023-09-12T18:04:34;98555.00;;;28.40
68012;BMP180;54794;48.348;7.878;2023-09-12T18:07:59;98568.00;;;28.20
68012;BMP180;54794;48.348;7.878;2023-09-12T18:11:29;98562.00;;;28.00
68012;BMP180;54794;48.348;7.878;2023-09-12T18:18:18;98574.00;;;27.90
68012;BMP180;54794;48.348;7.878;2023-09-12T18:22:08;98594.00;;;27.40
68012;BMP180;54794;48.348;7.878;2023-09-12T18:25:19;98588.00;;;27.30
68012;BMP180;54794;48.348;7.878;2023-09-12T18:29:02;98594.00;;;27.70
68012;BMP180;54794;48.348;7.878;2023-09-12T18:32:04;98613.00;;;27.20
68012;BMP180;54794;48.348;7.878;2023-09-12T18:42:57;98634.00;;;27.20
68012;BMP180;54794;48.348;7.878;2023-09-12T18:46:44;98640.00;;;26.50
68012;BMP180;54794;48.348;7.878;2023-09-12T18:50:26;98647.00;;;26.30
68012;BMP180;54794;48.348;7.878;2023-09-12T18:54:01;98656.00;;;26.20
68012;BMP180;54794;48.348;7.878;2023-09-12T18:57:43;98669.00;;;26.70
68012;BMP180;54794;48.348;7.878;2023-09-12T19:04:51;98690.00;;;26.40
68012;BMP180;54794;48.348;7.878;2023-09-12T19:08:04;98692.00;;;26.40
68012;BMP180;54794;48.348;7.878;2023-09-12T19:10:56;98694.00;;;25.90
68012;BMP180;54794;48.348;7.878;2023-09-12T19:14:19;98695.00;;;26.30
68012;BMP180;54794;48.348;7.878;2023-09-12T19:17:42;98711.00;;;26.20
68012;BMP180;54794;48.348;7.878;2023-09-12T19:21:21;98721.00;;;26.30
68012;BMP180;54794;48.348;7.878;2023-09-12T19:24:46;98723.00;;;26.50
68012;BMP180;54794;48.348;7.878;2023-09-12T19:27:48;98725.00;;;26.30
68012;BMP180;54794;48.348;7.878;2023-09-12T19:31:25;98734.00;;;26.40
68012;BMP180;54794;48.348;7.878;2023-09-12T19:34:36;98738.00;;;26.50
68012;BMP180;54794;48.348;7.878;2023-09-12T19:38:09;98736.00;;;26.70
68012;BMP180;54794;48.348;7.878;2023-09-12T19:41:42;98741.00;;;26.60
68012;BMP180;54794;48.348;7.878;2023-09-12T19:45:19;98742.00;;;26.20
68012;BMP180;54794;48.348;7.878;2023-09-12T19:55:21;98751.00;;;26.70
68012;BMP180;54794;48.348;7.878;2023-09-12T20:06:27;98765.00;;;26.50
68012;BMP180;54794;48.348;7.878;2023-09-12T20:10:02;98769.00;;;26.50
68012;BMP180;54794;48.348;7.878;2023-09-12T20:13:40;98772.00;;;26.60
68012;BMP180;54794;48.348;7.878;2023-09-12T20:16:49;98786.00;;;26.50
68012;BMP180;54794;48.348;7.878;2023-09-12T20:19:51;98797.00;;;26.60
68012;BMP180;54794;48.348;7.878;2023-09-12T20:30:21;98787.00;;;26.20
68012;BMP180;54794;48.348;7.878;2023-09-12T20:33:57;98796.00;;;26.30
68012;BMP180;54794;48.348;7.878;2023-09-12T20:37:48;98798.00;;;26.30
68012;BMP180;54794;48.348;7.878;2023-09-12T20:41:04;98802.00;;;26.30
68012;BMP180;54794;48.348;7.878;2023-09-12T20:44:32;98801.00;;;26.00
68012;BMP180;54794;48.348;7.878;2023-09-12T20:48:05;98823.00;;;25.50
68012;BMP180;54794;48.348;7.878;2023-09-12T20:51:26;98838.00;;;25.70
68012;BMP180;54794;48.348;7.878;2023-09-12T20:54:41;98841.00;;;25.70
68012;BMP180;54794;48.348;7.878;2023-09-12T20:57:59;98852.00;;;25.30
68012;BMP180;54794;48.348;7.878;2023-09-12T21:01:00;98851.00;;;25.50
68012;BMP180;54794;48.348;7.878;2023-09-12T21:04:17;98855.00;;;25.00
68012;BMP180;54794;48.348;7.878;2023-09-12T21:07:57;98872.00;;;25.50
68012;BMP180;54794;48.348;7.878;2023-09-12T21:11:14;98880.00;;;25.40
68012;BMP180;54794;48.348;7.878;2023-09-12T21:17:56;98896.00;;;25.30
68012;BMP180;54794;48.348;7.878;2023-09-12T21:28:46;98904.00;;;25.10
68012;BMP180;54794;48.348;7.878;2023-09-12T21:35:18;98907.00;;;24.90
68012;BMP180;54794;48.348;7.878;2023-09-12T21:39:02;98896.00;;;24.90
68012;BMP180;54794;48.348;7.878;2023-09-12T21:48:49;98912.00;;;24.70
68012;BMP180;54794;48.348;7.878;2023-09-12T21:51:36;98914.00;;;24.50
68012;BMP180;54794;48.348;7.878;2023-09-12T21:54:30;98922.00;;;24.30
68012;BMP180;54794;48.348;7.878;2023-09-12T21:57:11;98919.00;;;24.40
68012;BMP180;54794;48.348;7.878;2023-09-12T22:00:22;98922.00;;;24.50
68012;BMP180;54794;48.348;7.878;2023-09-12T22:02:55;98919.00;;;24.50
68012;BMP180;54794;48.348;7.878;2023-09-12T22:05:23;98926.00;;;24.60
68012;BMP180;54794;48.348;7.878;2023-09-12T22:07:56;98917.00;;;24.50
68012;BMP180;54794;48.348;7.878;2023-09-12T22:10:53;98921.00;;;24.40
68012;BMP180;54794;48.348;7.878;2023-09-12T22:13:42;98922.00;;;24.50
68012;BMP180;54794;48.348;7.878;2023-09-12T22:16:49;98918.00;;;24.40
68012;BMP180;54794;48.348;7.878;2023-09-12T22:19:19;98917.00;;;24.30
68012;BMP180;54794;48.348;7.878;2023-09-12T22:21:52;98925.00;;;24.50
68012;BMP180;54794;48.348;7.878;2023-09-12T22:24:19;98924.00;;;24.20
68012;BMP180;54794;48.348;7.878;2023-09-12T22:26:47;98922.00;;;24.20
68012;BMP180;54794;48.348;7.878;2023-09-12T22:29:16;98936.00;;;24.00
68012;BMP180;54794;48.348;7.878;2023-09-12T22:31:44;98935.00;;;24.10
68012;BMP180;54794;48.348;7.878;2023-09-12T22:34:11;98926.00;;;23.90
68012;BMP180;54794;48.348;7.878;2023-09-12T22:36:41;98936.00;;;23.70
68012;BMP180;54794;48.348;7.878;2023-09-12T22:39:09;98933.00;;;23.90
68012;BMP180;54794;48.348;7.878;2023-09-12T22:41:37;98932.00;;;24.10
68012;BMP180;54794;48.348;7.878;2023-09-12T22:44:07;98942.00;;;23.90
68012;BMP180;54794;48.348;7.878;2023-09-12T22:46:37;98928.00;;;24.10
68012;BMP180;54794;48.348;7.878;2023-09-12T22:49:50;98933.00;;;24.10
68012;BMP180;54794;48.348;7.878;2023-09-12T22:52:37;98928.00;;;24.00
68012;BMP180;54794;48.348;7.878;2023-09-12T22:55:46;98933.00;;;24.20
68012;BMP180;54794;48.348;7.878;2023-09-12T22:58:45;98933.00;;;24.20
68012;BMP180;54794;48.348;7.878;2023-09-12T23:01:25;98921.00;;;24.30
68012;BMP180;54794;48.348;7.878;2023-09-12T23:04:17;98927.00;;;24.30
68012;BMP180;54794;48.348;7.878;2023-09-12T23:07:16;98907.00;;;24.30
68012;BMP180;54794;48.348;7.878;2023-09-12T23:09:59;98911.00;;;24.50
68012;BMP180;54794;48.348;7.878;2023-09-12T23:12:57;98911.00;;;24.50
68012;BMP180;54794;48.348;7.878;2023-09-12T23:15:46;98905.00;;;24.30
68012;BMP180;54794;48.348;7.878;2023-09-12T23:18:41;98896.00;;;24.40
68012;BMP180;54794;48.348;7.878;2023-09-12T23:21:28;98902.00;;;24.20
68012;BMP180;54794;48.348;7.878;2023-09-12T23:24:04;98903.00;;;24.40
68012;BMP180;54794;48.348;7.878;2023-09-12T23:26:58;98905.00;;;24.30
68012;BMP180;54794;48.348;7.878;2023-09-12T23:29:37;98905.00;;;23.70
68012;BMP180;54794;48.348;7.878;2023-09-12T23:32:21;98908.00;;;23.60
68012;BMP180;54794;48.348;7.878;2023-09-12T23:35:13;98907.00;;;23.60
68012;BMP180;54794;48.348;7.878;2023-09-12T23:41:35;98917.00;;;23.80
68012;BMP180;54794;48.348;7.878;2023-09-12T23:44:28;98893.00;;;24.10
68012;BMP180;54794;48.348;7.878;2023-09-12T23:47:06;98890.00;;;24.10
68012;BMP180;54794;48.348;7.878;2023-09-12T23:49:35;98880.00;;;24.00
68012;BMP180;54794;48.348;7.878;2023-09-12T23:52:05;98891.00;;;23.60
68012;BMP180;54794;48.348;7.878;2023-09-12T23:54:36;98895.00;;;23.90
68012;BMP180;54794;48.348;7.878;2023-09-12T23:57:06;98902.00;;;23.80
68012;BMP180;54794;48.348;7.878;2023-09-12T23:59:40;98907.00;;;23.80
